Lairg, United Kingdom
Current Conditions -  °F | °C
As of 1:50 PM on Monday 20 Oct 2014 (Local Time) from EGPE Reporting Station
Broken Clouds Broken Clouds  
Wind Chill: 54°   Ceiling: 3400
Heat Index: 54°   Visibility: 6mi
Dew Point: 48°   Wind: 16mph
Humidity: 82%   Direction: 210°SSW
Pressure: 29.59"   Gusts: NA
Location:  58.08°N, 4.42°W
Report Text: EGPE 201250Z 21014KT 9999 FEW010 BKN034 12/09 Q1002
Loading
Personal Weather Stations






























Interactive Weather Map
Tropical Storm Tracking
New forecast layout! Learn more

10-Day Weather Forecast

Advertisements
Track Severe Weather on mobile